Arklow Raider — EIXS — position and weather

sailwx.info

Track history (hours):
 
Tides and Currents Weather Stations Pressure Air Temp Water Temp Dewpoint Dewpoint Depression Visibility Wind Speed Wind Dir Waves Ship Positions

Arklow Raider

Last reported at 2017-Mar-27 01:11 UTC. Time now 2017-Mar-27 20:18 UTC.
Position N 52°15' W 005°45'.

Length 90 m; draft 6.1 m.

Type: Cargo ship. MMSI: 250001268.

Date/timePositionNaut miles runAvg speedWind from/ knotsBaromVisibWave heightAir tempDewpointWater temp
2017-Mar-27 01:11N 52°15' W 005°45'5 8.5
2017-Mar-27 00:33N 52°10' W 005°45'65 9.3
2017-Mar-26 17:33N 51°05' W 005°52'90 6.9
2017-Mar-26 04:32N 50°02' W 004°11'10 9.5
2017-Mar-26 03:29N 50°05' W 003°56'9 9.7
2017-Mar-26 02:33N 50°07' W 003°42'1010.4
2017-Mar-26 01:34N 50°09' W 003°26'1111.2
2017-Mar-26 00:34N 50°12' W 003°09'1211.5
2017-Mar-25 23:33N 50°15' W 002°52'1211.7
2017-Mar-25 22:33N 50°18' W 002°34'40 9.8
2017-Mar-25 18:30N 50°27' W 001°33'8 8.3
2017-Mar-25 17:30N 50°28' W 001°21'9 8.2
2017-Mar-25 16:24N 50°30' W 001°06'8 9.6
2017-Mar-25 15:34N 50°30' W 000°54'1111.0
2017-Mar-25 14:33N 50°31' W 000°37'1211.8
2017-Mar-25 13:34N 50°33' W 000°18'1111.3
2017-Mar-25 12:34N 50°33' W 000°00'2311.4
2017-Mar-25 10:33N 50°39' E 000°34'1110.8
2017-Mar-25 09:33N 50°45' E 000°48'1110.2
2017-Mar-25 08:31N 50°51' E 001°02'1010.4
2017-Mar-25 07:33N 50°57' E 001°14'1211.8
2017-Mar-25 06:34N 51°05' E 001°29'1313.3
2017-Mar-25 05:33N 51°13' E 001°45'1212.4
2017-Mar-25 04:34N 51°23' E 001°57'1010.0
2017-Mar-25 03:33N 51°21' E 002°13'1110.6
2017-Mar-25 02:33N 51°23' E 002°30'1010.4
2017-Mar-25 01:33N 51°22' E 002°46'1110.9
2017-Mar-25 00:34N 51°25' E 003°03'1110.6
2017-Mar-24 23:33N 51°24' E 003°20'18 9.0
2017-Mar-24 21:32N 51°21' E 003°49'9 6.4
2017-Mar-24 20:10N 51°23' E 004°02'6 8.7
2017-Mar-24 19:27N 51°24' E 004°12'4 4.9
2017-Mar-24 18:33N 51°21' E 004°17'0 0.4
2017-Mar-24 17:33N 51°21' E 004°18'1 0.1
2017-Mar-23 20:27N 51°22' E 004°17'0 0.0
2017-Mar-23 15:23N 51°22' E 004°17'4 5.3
2017-Mar-23 14:34N 51°18' E 004°20'4 3.6
2017-Mar-23 13:34N 51°16' E 004°25'0 0.2
2017-Mar-23 12:33N 51°16' E 004°25'0 0.0
2017-Mar-23 11:33N 51°16' E 004°25'0 0.0
2017-Mar-23 10:33N 51°16' E 004°25'0 0.0
2017-Mar-23 09:33N 51°16' E 004°25'0 0.0
2017-Mar-23 08:33N 51°16' E 004°25'0 0.0
2017-Mar-23 07:33N 51°16' E 004°25'0 0.0
2017-Mar-23 06:33N 51°16' E 004°25'0 0.0
2017-Mar-23 05:33N 51°16' E 004°25'0 0.0
2017-Mar-23 04:33N 51°16' E 004°25'0 0.0
2017-Mar-23 03:33N 51°16' E 004°25'0 0.0
2017-Mar-23 02:33N 51°16' E 004°25'0 0.0
2017-Mar-23 01:33N 51°16' E 004°25'0 0.0
2017-Mar-23 00:33N 51°16' E 004°25'0 0.0
2017-Mar-22 23:33N 51°16' E 004°25'0 0.0
2017-Mar-22 22:30N 51°16' E 004°25'0 0.0
2017-Mar-22 21:33N 51°16' E 004°25'0 0.0
2017-Mar-22 20:33N 51°16' E 004°25'0 0.0
2017-Mar-22 19:33N 51°16' E 004°25'0 0.0
2017-Mar-22 18:33N 51°16' E 004°25'0 0.0
2017-Mar-22 17:33N 51°16' E 004°25'0 0.0
2017-Mar-22 16:33N 51°16' E 004°25'0 0.0
2017-Mar-22 15:33N 51°16' E 004°25'0 0.0
2017-Mar-22 14:33N 51°16' E 004°25'0 0.0
2017-Mar-22 13:33N 51°16' E 004°25'0 0.0
2017-Mar-22 12:33N 51°16' E 004°25'0 0.0
2017-Mar-22 11:33N 51°16' E 004°25'0 0.0
2017-Mar-22 10:33N 51°16' E 004°25'0 0.0
2017-Mar-22 09:33N 51°16' E 004°25'0 0.0
2017-Mar-22 08:33N 51°16' E 004°25'0 0.0
2017-Mar-22 07:33N 51°16' E 004°25'0 0.0
2017-Mar-22 06:33N 51°16' E 004°25'0 0.1
2017-Mar-22 05:33N 51°16' E 004°25'5 4.9
2017-Mar-22 04:33N 51°19' E 004°19'2 2.1
2017-Mar-22 03:33N 51°21' E 004°17'0 0.0
2017-Mar-22 02:33N 51°21' E 004°17'0 0.2
2017-Mar-22 01:33N 51°21' E 004°17'7 6.5
2017-Mar-22 00:31N 51°22' E 004°06'6 5.9
2017-Mar-21 23:32N 51°23' E 003°57'9 8.6
2017-Mar-21 22:32N 51°23' E 003°43'8 8.5
2017-Mar-21 21:33N 51°27' E 003°32'1110.5
2017-Mar-21 20:31N 51°36' E 003°22'9 9.5
2017-Mar-21 19:33N 51°44' E 003°16'5 4.6
2017-Mar-21 18:27N 51°48' E 003°22'0 0.1
2017-Mar-21 15:10N 51°48' E 003°21'5 7.3
2017-Mar-21 14:33N 51°47' E 003°14'70 9.5
2017-Mar-21 07:08N 52°45' E 002°10'711.2
2017-Mar-21 06:32N 52°52' E 002°07'1111.1
2017-Mar-21 05:33N 52°58' E 001°52'1312.4
2017-Mar-21 04:33N 53°04' E 001°34'1212.0
2017-Mar-21 03:34N 53°12' E 001°19'1211.8
2017-Mar-21 02:33N 53°22' E 001°10'4711.7
2017-Mar-20 22:33N 54°00' E 000°24'1313.4
2017-Mar-20 21:33N 54°10' E 000°07'1413.6
2017-Mar-20 20:33N 54°19' W 000°09'1313.4
2017-Mar-20 19:33N 54°28' W 000°26'  
2017-Mar-18 10:33N 54°55' W 001°09'9 9.1
2017-Mar-18 09:33N 55°04' W 001°09'9 9.0
2017-Mar-18 08:33N 55°13' W 001°10'9 8.8
2017-Mar-18 07:33N 55°22' W 001°14'1110.2
2017-Mar-18 06:26N 55°33' W 001°16'1111.2
2017-Mar-18 05:26N 55°44' W 001°17'10410.2
2017-Mar-17 19:15N 57°28' W 001°34'710.2
2017-Mar-17 18:31N 57°35' W 001°35'6610.3
2017-Mar-17 12:06N 58°30' W 002°45'712.6
2017-Mar-17 11:33N 58°36' W 002°52'1414.3
2017-Mar-17 10:33N 58°43' W 003°16'1211.6
2017-Mar-17 09:33N 58°43' W 003°38'1111.0
2017-Mar-17 08:33N 58°43' W 003°59'  
Track history (hours):
 
Tides and Currents Weather Stations Pressure Air Temp Water Temp Dewpoint Dewpoint Depression Visibility Wind Speed Wind Dir Waves Ship Positions

Arklow Raider

Last reported at 2017-Mar-27 01:11 UTC. Time now 2017-Mar-27 20:18 UTC.
Position N 52°15' W 005°45'.

Length 90 m; draft 6.1 m.

Type: Cargo ship. MMSI: 250001268.

Date/timePositionNaut miles runAvg speedWind from/ knotsBaromVisibWave heightAir tempDewpointWater temp
2017-Mar-27 01:11N 52°15' W 005°45'5 8.5
2017-Mar-27 00:33N 52°10' W 005°45'65 9.3
2017-Mar-26 17:33N 51°05' W 005°52'90 6.9
2017-Mar-26 04:32N 50°02' W 004°11'10 9.5
2017-Mar-26 03:29N 50°05' W 003°56'9 9.7
2017-Mar-26 02:33N 50°07' W 003°42'1010.4
2017-Mar-26 01:34N 50°09' W 003°26'1111.2
2017-Mar-26 00:34N 50°12' W 003°09'1211.5
2017-Mar-25 23:33N 50°15' W 002°52'1211.7
2017-Mar-25 22:33N 50°18' W 002°34'40 9.8
2017-Mar-25 18:30N 50°27' W 001°33'8 8.3
2017-Mar-25 17:30N 50°28' W 001°21'9 8.2
2017-Mar-25 16:24N 50°30' W 001°06'8 9.6
2017-Mar-25 15:34N 50°30' W 000°54'1111.0
2017-Mar-25 14:33N 50°31' W 000°37'1211.8
2017-Mar-25 13:34N 50°33' W 000°18'1111.3
2017-Mar-25 12:34N 50°33' W 000°00'2311.4
2017-Mar-25 10:33N 50°39' E 000°34'1110.8
2017-Mar-25 09:33N 50°45' E 000°48'1110.2
2017-Mar-25 08:31N 50°51' E 001°02'1010.4
2017-Mar-25 07:33N 50°57' E 001°14'1211.8
2017-Mar-25 06:34N 51°05' E 001°29'1313.3
2017-Mar-25 05:33N 51°13' E 001°45'1212.4
2017-Mar-25 04:34N 51°23' E 001°57'1010.0
2017-Mar-25 03:33N 51°21' E 002°13'1110.6
2017-Mar-25 02:33N 51°23' E 002°30'1010.4
2017-Mar-25 01:33N 51°22' E 002°46'1110.9
2017-Mar-25 00:34N 51°25' E 003°03'1110.6
2017-Mar-24 23:33N 51°24' E 003°20'18 9.0
2017-Mar-24 21:32N 51°21' E 003°49'9 6.4
2017-Mar-24 20:10N 51°23' E 004°02'6 8.7
2017-Mar-24 19:27N 51°24' E 004°12'4 4.9
2017-Mar-24 18:33N 51°21' E 004°17'0 0.4
2017-Mar-24 17:33N 51°21' E 004°18'1 0.1
2017-Mar-23 20:27N 51°22' E 004°17'0 0.0
2017-Mar-23 15:23N 51°22' E 004°17'4 5.3
2017-Mar-23 14:34N 51°18' E 004°20'4 3.6
2017-Mar-23 13:34N 51°16' E 004°25'0 0.2
2017-Mar-23 12:33N 51°16' E 004°25'0 0.0
2017-Mar-23 11:33N 51°16' E 004°25'0 0.0
2017-Mar-23 10:33N 51°16' E 004°25'0 0.0
2017-Mar-23 09:33N 51°16' E 004°25'0 0.0
2017-Mar-23 08:33N 51°16' E 004°25'0 0.0
2017-Mar-23 07:33N 51°16' E 004°25'0 0.0
2017-Mar-23 06:33N 51°16' E 004°25'0 0.0
2017-Mar-23 05:33N 51°16' E 004°25'0 0.0
2017-Mar-23 04:33N 51°16' E 004°25'0 0.0
2017-Mar-23 03:33N 51°16' E 004°25'0 0.0
2017-Mar-23 02:33N 51°16' E 004°25'0 0.0
2017-Mar-23 01:33N 51°16' E 004°25'0 0.0
2017-Mar-23 00:33N 51°16' E 004°25'0 0.0
2017-Mar-22 23:33N 51°16' E 004°25'0 0.0
2017-Mar-22 22:30N 51°16' E 004°25'0 0.0
2017-Mar-22 21:33N 51°16' E 004°25'0 0.0
2017-Mar-22 20:33N 51°16' E 004°25'0 0.0
2017-Mar-22 19:33N 51°16' E 004°25'0 0.0
2017-Mar-22 18:33N 51°16' E 004°25'0 0.0
2017-Mar-22 17:33N 51°16' E 004°25'0 0.0
2017-Mar-22 16:33N 51°16' E 004°25'0 0.0
2017-Mar-22 15:33N 51°16' E 004°25'0 0.0
2017-Mar-22 14:33N 51°16' E 004°25'0 0.0
2017-Mar-22 13:33N 51°16' E 004°25'0 0.0
2017-Mar-22 12:33N 51°16' E 004°25'0 0.0
2017-Mar-22 11:33N 51°16' E 004°25'0 0.0
2017-Mar-22 10:33N 51°16' E 004°25'0 0.0
2017-Mar-22 09:33N 51°16' E 004°25'0 0.0
2017-Mar-22 08:33N 51°16' E 004°25'0 0.0
2017-Mar-22 07:33N 51°16' E 004°25'0 0.0
2017-Mar-22 06:33N 51°16' E 004°25'0 0.1
2017-Mar-22 05:33N 51°16' E 004°25'5 4.9
2017-Mar-22 04:33N 51°19' E 004°19'2 2.1
2017-Mar-22 03:33N 51°21' E 004°17'0 0.0
2017-Mar-22 02:33N 51°21' E 004°17'0 0.2
2017-Mar-22 01:33N 51°21' E 004°17'7 6.5
2017-Mar-22 00:31N 51°22' E 004°06'6 5.9
2017-Mar-21 23:32N 51°23' E 003°57'9 8.6
2017-Mar-21 22:32N 51°23' E 003°43'8 8.5
2017-Mar-21 21:33N 51°27' E 003°32'1110.5
2017-Mar-21 20:31N 51°36' E 003°22'9 9.5
2017-Mar-21 19:33N 51°44' E 003°16'5 4.6
2017-Mar-21 18:27N 51°48' E 003°22'0 0.1
2017-Mar-21 15:10N 51°48' E 003°21'5 7.3
2017-Mar-21 14:33N 51°47' E 003°14'70 9.5
2017-Mar-21 07:08N 52°45' E 002°10'711.2
2017-Mar-21 06:32N 52°52' E 002°07'1111.1
2017-Mar-21 05:33N 52°58' E 001°52'1312.4
2017-Mar-21 04:33N 53°04' E 001°34'1212.0
2017-Mar-21 03:34N 53°12' E 001°19'1211.8
2017-Mar-21 02:33N 53°22' E 001°10'4711.7
2017-Mar-20 22:33N 54°00' E 000°24'1313.4
2017-Mar-20 21:33N 54°10' E 000°07'1413.6
2017-Mar-20 20:33N 54°19' W 000°09'1313.4
2017-Mar-20 19:33N 54°28' W 000°26'  
2017-Mar-18 10:33N 54°55' W 001°09'9 9.1
2017-Mar-18 09:33N 55°04' W 001°09'9 9.0
2017-Mar-18 08:33N 55°13' W 001°10'9 8.8
2017-Mar-18 07:33N 55°22' W 001°14'1110.2
2017-Mar-18 06:26N 55°33' W 001°16'1111.2
2017-Mar-18 05:26N 55°44' W 001°17'10410.2
2017-Mar-17 19:15N 57°28' W 001°34'710.2
2017-Mar-17 18:31N 57°35' W 001°35'6610.3
2017-Mar-17 12:06N 58°30' W 002°45'712.6
2017-Mar-17 11:33N 58°36' W 002°52'1414.3
2017-Mar-17 10:33N 58°43' W 003°16'1211.6
2017-Mar-17 09:33N 58°43' W 003°38'1111.0
2017-Mar-17 08:33N 58°43' W 003°59'  

Dump ship's entire track history